Ripon, Wisconsin
Current Conditions -  °F | °C
As of 12:53 PM on Tuesday 27 Jan 2015 (Local Time) from KOSH Reporting Station
Overcast Overcast  
Wind Chill: 22°   Ceiling: 3500
Heat Index: 28°   Visibility: 10mi
Dew Point: 17°   Wind: 6mph
Humidity: 63%   Direction: 20°NNE
Pressure: 30.2"   Gusts: NA
Location:  43.85°N, 88.84°W
Report Text: KOSH 271853Z 02005KT 10SM OVC035 M02/M08 A3020 RMK AO2 SLP243 T10221083
Loading
Personal Weather Stations






























Interactive Weather Map New forecast layout! Learn more

10-Day Weather Forecast

Advertisements
Track Severe Weather on mobile